sensor_id;sensor_type;location;lat;lon;timestamp;P1;durP1;ratioP1;P2;durP2;ratioP2
38853;SDS011;24606;51.992;4.198;2023-12-20T00:03:27;0.20;;;0.20;;
38853;SDS011;24606;51.992;4.198;2023-12-20T00:08:29;0.10;;;0.10;;
38853;SDS011;24606;51.992;4.198;2023-12-20T00:13:32;0.20;;;0.20;;
38853;SDS011;24606;51.992;4.198;2023-12-20T00:18:34;0.30;;;0.30;;
38853;SDS011;24606;51.992;4.198;2023-12-20T00:23:36;0.60;;;0.60;;
38853;SDS011;24606;51.992;4.198;2023-12-20T00:28:40;0.80;;;0.80;;
38853;SDS011;24606;51.992;4.198;2023-12-20T00:33:42;0.20;;;0.20;;
38853;SDS011;24606;51.992;4.198;2023-12-20T00:38:46;0.22;;;0.22;;
38853;SDS011;24606;51.992;4.198;2023-12-20T00:43:51;0.10;;;0.10;;
38853;SDS011;24606;51.992;4.198;2023-12-20T00:48:53;0.10;;;0.10;;
38853;SDS011;24606;51.992;4.198;2023-12-20T00:53:55;0.88;;;0.88;;
38853;SDS011;24606;51.992;4.198;2023-12-20T00:58:59;0.20;;;0.20;;
38853;SDS011;24606;51.992;4.198;2023-12-20T01:04:01;26.58;;;3.33;;
38853;SDS011;24606;51.992;4.198;2023-12-20T01:09:03;43.05;;;3.92;;
38853;SDS011;24606;51.992;4.198;2023-12-20T01:14:09;25.15;;;4.20;;
38853;SDS011;24606;51.992;4.198;2023-12-20T01:19:12;18.42;;;3.30;;
38853;SDS011;24606;51.992;4.198;2023-12-20T01:24:15;25.55;;;4.10;;
38853;SDS011;24606;51.992;4.198;2023-12-20T01:29:18;24.10;;;4.30;;
38853;SDS011;24606;51.992;4.198;2023-12-20T01:34:20;30.25;;;4.25;;
38853;SDS011;24606;51.992;4.198;2023-12-20T01:39:22;34.80;;;6.32;;
38853;SDS011;24606;51.992;4.198;2023-12-20T01:44:25;21.88;;;3.10;;
38853;SDS011;24606;51.992;4.198;2023-12-20T01:49:27;23.75;;;3.30;;
38853;SDS011;24606;51.992;4.198;2023-12-20T01:54:30;24.13;;;4.43;;
38853;SDS011;24606;51.992;4.198;2023-12-20T01:59:34;21.02;;;4.60;;
38853;SDS011;24606;51.992;4.198;2023-12-20T02:04:37;27.60;;;3.65;;
38853;SDS011;24606;51.992;4.198;2023-12-20T02:09:39;23.23;;;3.17;;
38853;SDS011;24606;51.992;4.198;2023-12-20T02:14:43;27.87;;;4.27;;
38853;SDS011;24606;51.992;4.198;2023-12-20T02:19:45;36.30;;;4.50;;
38853;SDS011;24606;51.992;4.198;2023-12-20T02:24:49;23.73;;;3.03;;
38853;SDS011;24606;51.992;4.198;2023-12-20T02:29:51;28.23;;;4.20;;
38853;SDS011;24606;51.992;4.198;2023-12-20T02:34:53;44.30;;;4.87;;
38853;SDS011;24606;51.992;4.198;2023-12-20T02:39:57;11.40;;;2.50;;
38853;SDS011;24606;51.992;4.198;2023-12-20T02:44:59;17.52;;;1.92;;
38853;SDS011;24606;51.992;4.198;2023-12-20T02:50:01;51.10;;;5.53;;
38853;SDS011;24606;51.992;4.198;2023-12-20T02:55:05;21.00;;;4.87;;
38853;SDS011;24606;51.992;4.198;2023-12-20T03:00:07;35.80;;;5.05;;
38853;SDS011;24606;51.992;4.198;2023-12-20T03:10:14;34.90;;;5.93;;
38853;SDS011;24606;51.992;4.198;2023-12-20T03:15:16;29.98;;;5.82;;
38853;SDS011;24606;51.992;4.198;2023-12-20T03:20:18;38.72;;;4.18;;
38853;SDS011;24606;51.992;4.198;2023-12-20T03:25:21;31.10;;;4.90;;
38853;SDS011;24606;51.992;4.198;2023-12-20T03:35:25;21.23;;;3.70;;
38853;SDS011;24606;51.992;4.198;2023-12-20T03:40:28;25.13;;;5.60;;
38853;SDS011;24606;51.992;4.198;2023-12-20T03:50:32;28.13;;;5.63;;
38853;SDS011;24606;51.992;4.198;2023-12-20T03:55:38;23.90;;;3.10;;
38853;SDS011;24606;51.992;4.198;2023-12-20T04:15:29;10.90;;;2.30;;
38853;SDS011;24606;51.992;4.198;2023-12-20T04:20:32;40.58;;;6.70;;
38853;SDS011;24606;51.992;4.198;2023-12-20T04:25:34;41.78;;;6.30;;
38853;SDS011;24606;51.992;4.198;2023-12-20T04:30:38;29.52;;;5.85;;
38853;SDS011;24606;51.992;4.198;2023-12-20T04:35:39;32.63;;;6.93;;
38853;SDS011;24606;51.992;4.198;2023-12-20T04:40:43;36.35;;;6.22;;
38853;SDS011;24606;51.992;4.198;2023-12-20T04:45:46;25.35;;;4.72;;
38853;SDS011;24606;51.992;4.198;2023-12-20T04:55:50;46.60;;;8.48;;
38853;SDS011;24606;51.992;4.198;2023-12-20T05:00:53;35.20;;;5.03;;
38853;SDS011;24606;51.992;4.198;2023-12-20T05:05:55;38.20;;;5.53;;
38853;SDS011;24606;51.992;4.198;2023-12-20T05:10:57;37.87;;;5.70;;
38853;SDS011;24606;51.992;4.198;2023-12-20T05:16:01;39.55;;;7.45;;
38853;SDS011;24606;51.992;4.198;2023-12-20T05:21:03;32.47;;;6.20;;
38853;SDS011;24606;51.992;4.198;2023-12-20T05:26:05;35.47;;;5.90;;
38853;SDS011;24606;51.992;4.198;2023-12-20T05:31:09;30.50;;;5.05;;
38853;SDS011;24606;51.992;4.198;2023-12-20T05:36:11;20.75;;;3.35;;
38853;SDS011;24606;51.992;4.198;2023-12-20T05:41:15;34.40;;;4.82;;
38853;SDS011;24606;51.992;4.198;2023-12-20T05:46:18;24.42;;;4.88;;
38853;SDS011;24606;51.992;4.198;2023-12-20T05:51:21;36.42;;;6.35;;
38853;SDS011;24606;51.992;4.198;2023-12-20T05:56:23;37.15;;;6.45;;
38853;SDS011;24606;51.992;4.198;2023-12-20T06:01:26;34.92;;;6.07;;
38853;SDS011;24606;51.992;4.198;2023-12-20T06:11:30;41.15;;;8.00;;
38853;SDS011;24606;51.992;4.198;2023-12-20T06:16:34;27.15;;;5.43;;
38853;SDS011;24606;51.992;4.198;2023-12-20T06:26:37;33.70;;;6.45;;
38853;SDS011;24606;51.992;4.198;2023-12-20T06:31:41;40.35;;;6.78;;
38853;SDS011;24606;51.992;4.198;2023-12-20T06:36:43;21.40;;;5.13;;
38853;SDS011;24606;51.992;4.198;2023-12-20T06:41:45;23.30;;;3.58;;
38853;SDS011;24606;51.992;4.198;2023-12-20T06:46:48;29.77;;;5.90;;
38853;SDS011;24606;51.992;4.198;2023-12-20T06:51:50;32.35;;;5.97;;
38853;SDS011;24606;51.992;4.198;2023-12-20T06:56:53;42.50;;;7.15;;
38853;SDS011;24606;51.992;4.198;2023-12-20T07:01:56;30.13;;;5.30;;
38853;SDS011;24606;51.992;4.198;2023-12-20T07:12:00;28.13;;;4.78;;
38853;SDS011;24606;51.992;4.198;2023-12-20T07:17:04;41.97;;;7.97;;
38853;SDS011;24606;51.992;4.198;2023-12-20T07:22:11;32.70;;;4.72;;
38853;SDS011;24606;51.992;4.198;2023-12-20T07:27:13;39.93;;;7.90;;
38853;SDS011;24606;51.992;4.198;2023-12-20T07:32:20;26.50;;;3.25;;
38853;SDS011;24606;51.992;4.198;2023-12-20T07:37:22;33.90;;;6.45;;
38853;SDS011;24606;51.992;4.198;2023-12-20T07:42:24;36.85;;;5.75;;
38853;SDS011;24606;51.992;4.198;2023-12-20T07:47:29;40.70;;;7.60;;
38853;SDS011;24606;51.992;4.198;2023-12-20T07:52:31;31.70;;;6.35;;
38853;SDS011;24606;51.992;4.198;2023-12-20T07:57:33;33.65;;;6.65;;
38853;SDS011;24606;51.992;4.198;2023-12-20T08:02:39;30.02;;;5.95;;
38853;SDS011;24606;51.992;4.198;2023-12-20T08:07:41;38.50;;;7.63;;
38853;SDS011;24606;51.992;4.198;2023-12-20T08:12:44;42.53;;;5.63;;
38853;SDS011;24606;51.992;4.198;2023-12-20T08:17:47;34.75;;;6.07;;
38853;SDS011;24606;51.992;4.198;2023-12-20T08:22:51;30.85;;;5.82;;
38853;SDS011;24606;51.992;4.198;2023-12-20T08:27:53;26.73;;;4.35;;
38853;SDS011;24606;51.992;4.198;2023-12-20T08:32:56;25.50;;;4.40;;
38853;SDS011;24606;51.992;4.198;2023-12-20T08:38:00;43.00;;;5.65;;
38853;SDS011;24606;51.992;4.198;2023-12-20T08:43:02;25.75;;;4.20;;
38853;SDS011;24606;51.992;4.198;2023-12-20T08:48:06;26.07;;;4.80;;
38853;SDS011;24606;51.992;4.198;2023-12-20T08:53:08;27.58;;;5.85;;
38853;SDS011;24606;51.992;4.198;2023-12-20T08:58:11;24.63;;;3.97;;
38853;SDS011;24606;51.992;4.198;2023-12-20T09:03:14;29.73;;;5.35;;
38853;SDS011;24606;51.992;4.198;2023-12-20T09:08:16;38.08;;;7.15;;
38853;SDS011;24606;51.992;4.198;2023-12-20T09:13:18;27.60;;;5.43;;
38853;SDS011;24606;51.992;4.198;2023-12-20T09:18:30;33.10;;;5.68;;
38853;SDS011;24606;51.992;4.198;2023-12-20T09:23:32;62.58;;;6.35;;
38853;SDS011;24606;51.992;4.198;2023-12-20T09:28:34;29.77;;;3.47;;
38853;SDS011;24606;51.992;4.198;2023-12-20T09:33:38;31.95;;;6.18;;
38853;SDS011;24606;51.992;4.198;2023-12-20T09:38:40;26.27;;;4.40;;
38853;SDS011;24606;51.992;4.198;2023-12-20T09:43:42;38.47;;;5.95;;
38853;SDS011;24606;51.992;4.198;2023-12-20T09:48:46;40.00;;;5.72;;
38853;SDS011;24606;51.992;4.198;2023-12-20T09:53:48;20.98;;;4.15;;
38853;SDS011;24606;51.992;4.198;2023-12-20T09:58:52;35.55;;;4.10;;
38853;SDS011;24606;51.992;4.198;2023-12-20T10:03:56;20.55;;;3.42;;
38853;SDS011;24606;51.992;4.198;2023-12-20T10:09:02;12.43;;;2.90;;
38853;SDS011;24606;51.992;4.198;2023-12-20T10:14:06;31.98;;;5.30;;
38853;SDS011;24606;51.992;4.198;2023-12-20T10:19:10;23.13;;;3.22;;
38853;SDS011;24606;51.992;4.198;2023-12-20T10:24:16;30.08;;;4.20;;
38853;SDS011;24606;51.992;4.198;2023-12-20T10:29:18;31.45;;;3.97;;
38853;SDS011;24606;51.992;4.198;2023-12-20T10:34:22;24.25;;;3.92;;
38853;SDS011;24606;51.992;4.198;2023-12-20T10:39:24;26.50;;;5.00;;
38853;SDS011;24606;51.992;4.198;2023-12-20T10:44:30;34.33;;;5.07;;
38853;SDS011;24606;51.992;4.198;2023-12-20T10:49:34;28.33;;;4.07;;
38853;SDS011;24606;51.992;4.198;2023-12-20T10:54:38;31.75;;;4.50;;
38853;SDS011;24606;51.992;4.198;2023-12-20T10:59:41;35.38;;;6.45;;
38853;SDS011;24606;51.992;4.198;2023-12-20T11:04:50;30.85;;;5.00;;
38853;SDS011;24606;51.992;4.198;2023-12-20T11:09:59;20.13;;;5.10;;
38853;SDS011;24606;51.992;4.198;2023-12-20T11:15:05;30.75;;;5.38;;
38853;SDS011;24606;51.992;4.198;2023-12-20T11:20:10;25.13;;;4.50;;
38853;SDS011;24606;51.992;4.198;2023-12-20T11:25:13;31.10;;;3.78;;
38853;SDS011;24606;51.992;4.198;2023-12-20T11:30:15;17.77;;;3.20;;
38853;SDS011;24606;51.992;4.198;2023-12-20T11:35:19;24.60;;;5.20;;
38853;SDS011;24606;51.992;4.198;2023-12-20T11:40:22;38.40;;;5.68;;
38853;SDS011;24606;51.992;4.198;2023-12-20T11:45:25;27.77;;;3.15;;
38853;SDS011;24606;51.992;4.198;2023-12-20T11:50:30;38.87;;;4.60;;
38853;SDS011;24606;51.992;4.198;2023-12-20T11:55:32;28.52;;;4.72;;
38853;SDS011;24606;51.992;4.198;2023-12-20T12:00:36;26.35;;;5.43;;
38853;SDS011;24606;51.992;4.198;2023-12-20T12:05:40;25.07;;;4.70;;
38853;SDS011;24606;51.992;4.198;2023-12-20T12:10:43;26.50;;;3.08;;
38853;SDS011;24606;51.992;4.198;2023-12-20T12:15:46;23.55;;;3.70;;
38853;SDS011;24606;51.992;4.198;2023-12-20T12:20:52;28.60;;;5.25;;
38853;SDS011;24606;51.992;4.198;2023-12-20T12:26:03;29.50;;;2.77;;
38853;SDS011;24606;51.992;4.198;2023-12-20T12:36:09;22.52;;;3.40;;
38853;SDS011;24606;51.992;4.198;2023-12-20T12:41:12;26.98;;;4.63;;
38853;SDS011;24606;51.992;4.198;2023-12-20T12:46:15;24.48;;;2.92;;
38853;SDS011;24606;51.992;4.198;2023-12-20T12:51:18;26.00;;;5.00;;
38853;SDS011;24606;51.992;4.198;2023-12-20T12:56:21;26.92;;;3.80;;
38853;SDS011;24606;51.992;4.198;2023-12-20T13:01:29;23.17;;;3.42;;
38853;SDS011;24606;51.992;4.198;2023-12-20T13:06:34;33.28;;;5.40;;
38853;SDS011;24606;51.992;4.198;2023-12-20T13:11:37;23.02;;;4.65;;
38853;SDS011;24606;51.992;4.198;2023-12-20T13:16:39;30.23;;;5.18;;
38853;SDS011;24606;51.992;4.198;2023-12-20T13:21:48;29.35;;;4.47;;
38853;SDS011;24606;51.992;4.198;2023-12-20T13:26:50;27.25;;;3.40;;
38853;SDS011;24606;51.992;4.198;2023-12-20T13:31:52;38.07;;;5.37;;
38853;SDS011;24606;51.992;4.198;2023-12-20T13:36:56;32.78;;;4.05;;
38853;SDS011;24606;51.992;4.198;2023-12-20T13:41:58;28.50;;;3.63;;
38853;SDS011;24606;51.992;4.198;2023-12-20T13:47:00;30.13;;;4.93;;
38853;SDS011;24606;51.992;4.198;2023-12-20T13:57:07;33.83;;;6.20;;
38853;SDS011;24606;51.992;4.198;2023-12-20T14:02:10;28.50;;;5.90;;
38853;SDS011;24606;51.992;4.198;2023-12-20T14:07:13;37.15;;;6.03;;
38853;SDS011;24606;51.992;4.198;2023-12-20T14:12:15;38.47;;;6.28;;
38853;SDS011;24606;51.992;4.198;2023-12-20T14:17:17;25.00;;;4.60;;
38853;SDS011;24606;51.992;4.198;2023-12-20T14:22:21;44.33;;;7.25;;
38853;SDS011;24606;51.992;4.198;2023-12-20T14:27:25;16.83;;;2.65;;
38853;SDS011;24606;51.992;4.198;2023-12-20T14:32:28;37.13;;;5.78;;
38853;SDS011;24606;51.992;4.198;2023-12-20T14:37:31;32.45;;;6.15;;
38853;SDS011;24606;51.992;4.198;2023-12-20T14:42:33;23.25;;;3.75;;
38853;SDS011;24606;51.992;4.198;2023-12-20T14:47:36;24.35;;;4.25;;
38853;SDS011;24606;51.992;4.198;2023-12-20T14:52:40;31.63;;;6.68;;
38853;SDS011;24606;51.992;4.198;2023-12-20T14:57:42;31.85;;;4.95;;
38853;SDS011;24606;51.992;4.198;2023-12-20T15:02:48;28.75;;;5.35;;
38853;SDS011;24606;51.992;4.198;2023-12-20T15:07:51;19.27;;;3.25;;
38853;SDS011;24606;51.992;4.198;2023-12-20T15:12:54;22.10;;;3.58;;
38853;SDS011;24606;51.992;4.198;2023-12-20T15:17:56;26.42;;;5.00;;
38853;SDS011;24606;51.992;4.198;2023-12-20T15:22:59;32.22;;;5.40;;
38853;SDS011;24606;51.992;4.198;2023-12-20T15:28:05;19.42;;;3.13;;
38853;SDS011;24606;51.992;4.198;2023-12-20T15:33:07;32.33;;;5.93;;
38853;SDS011;24606;51.992;4.198;2023-12-20T15:38:11;28.02;;;4.82;;
38853;SDS011;24606;51.992;4.198;2023-12-20T15:43:14;30.05;;;4.85;;
38853;SDS011;24606;51.992;4.198;2023-12-20T15:48:16;32.40;;;4.95;;
38853;SDS011;24606;51.992;4.198;2023-12-20T15:53:21;24.90;;;3.63;;
38853;SDS011;24606;51.992;4.198;2023-12-20T15:58:23;10.98;;;4.03;;
38853;SDS011;24606;51.992;4.198;2023-12-20T16:03:26;0.52;;;0.52;;
38853;SDS011;24606;51.992;4.198;2023-12-20T16:08:30;0.20;;;0.20;;
38853;SDS011;24606;51.992;4.198;2023-12-20T16:13:32;0.10;;;0.10;;
38853;SDS011;24606;51.992;4.198;2023-12-20T16:18:35;0.15;;;0.15;;
38853;SDS011;24606;51.992;4.198;2023-12-20T16:23:39;0.20;;;0.20;;
38853;SDS011;24606;51.992;4.198;2023-12-20T16:28:41;0.45;;;0.45;;
38853;SDS011;24606;51.992;4.198;2023-12-20T16:33:43;0.38;;;0.38;;
38853;SDS011;24606;51.992;4.198;2023-12-20T16:38:47;0.10;;;0.10;;
38853;SDS011;24606;51.992;4.198;2023-12-20T16:43:50;0.22;;;0.22;;
38853;SDS011;24606;51.992;4.198;2023-12-20T16:48:52;0.15;;;0.15;;
38853;SDS011;24606;51.992;4.198;2023-12-20T16:53:55;0.85;;;0.43;;
38853;SDS011;24606;51.992;4.198;2023-12-20T16:58:57;0.10;;;0.10;;
38853;SDS011;24606;51.992;4.198;2023-12-20T17:03:59;2.05;;;1.27;;
38853;SDS011;24606;51.992;4.198;2023-12-20T17:09:03;0.10;;;0.10;;
38853;SDS011;24606;51.992;4.198;2023-12-20T17:14:05;0.10;;;0.10;;
38853;SDS011;24606;51.992;4.198;2023-12-20T17:19:09;0.10;;;0.10;;
38853;SDS011;24606;51.992;4.198;2023-12-20T17:24:13;0.10;;;0.10;;
38853;SDS011;24606;51.992;4.198;2023-12-20T17:29:15;17.05;;;4.60;;
38853;SDS011;24606;51.992;4.198;2023-12-20T17:34:17;20.48;;;3.88;;
38853;SDS011;24606;51.992;4.198;2023-12-20T17:39:20;21.70;;;4.03;;
38853;SDS011;24606;51.992;4.198;2023-12-20T17:44:22;40.30;;;5.43;;
38853;SDS011;24606;51.992;4.198;2023-12-20T17:49:25;37.60;;;5.80;;
38853;SDS011;24606;51.992;4.198;2023-12-20T17:54:28;37.42;;;4.85;;
38853;SDS011;24606;51.992;4.198;2023-12-20T17:59:30;38.70;;;5.53;;
38853;SDS011;24606;51.992;4.198;2023-12-20T18:04:32;27.33;;;3.97;;
38853;SDS011;24606;51.992;4.198;2023-12-20T18:09:35;35.97;;;5.40;;
38853;SDS011;24606;51.992;4.198;2023-12-20T18:14:38;24.17;;;3.88;;
38853;SDS011;24606;51.992;4.198;2023-12-20T18:19:40;37.65;;;7.30;;
38853;SDS011;24606;51.992;4.198;2023-12-20T18:24:43;38.38;;;6.05;;
38853;SDS011;24606;51.992;4.198;2023-12-20T18:29:45;42.20;;;5.53;;
38853;SDS011;24606;51.992;4.198;2023-12-20T18:34:47;36.13;;;4.22;;
38853;SDS011;24606;51.992;4.198;2023-12-20T18:39:50;42.05;;;6.38;;
38853;SDS011;24606;51.992;4.198;2023-12-20T18:44:52;34.30;;;6.50;;
38853;SDS011;24606;51.992;4.198;2023-12-20T18:54:59;27.17;;;4.88;;
38853;SDS011;24606;51.992;4.198;2023-12-20T19:00:03;26.67;;;3.45;;
38853;SDS011;24606;51.992;4.198;2023-12-20T19:05:05;22.90;;;5.47;;
38853;SDS011;24606;51.992;4.198;2023-12-20T19:10:10;28.10;;;4.93;;
38853;SDS011;24606;51.992;4.198;2023-12-20T19:15:12;30.63;;;5.15;;
38853;SDS011;24606;51.992;4.198;2023-12-20T19:20:15;20.77;;;4.10;;
38853;SDS011;24606;51.992;4.198;2023-12-20T19:25:20;29.95;;;5.63;;
38853;SDS011;24606;51.992;4.198;2023-12-20T19:30:22;22.73;;;4.32;;
38853;SDS011;24606;51.992;4.198;2023-12-20T19:35:24;19.23;;;2.85;;
38853;SDS011;24606;51.992;4.198;2023-12-20T19:40:31;24.65;;;4.32;;
38853;SDS011;24606;51.992;4.198;2023-12-20T19:45:33;19.15;;;4.65;;
38853;SDS011;24606;51.992;4.198;2023-12-20T19:50:35;22.88;;;4.07;;
38853;SDS011;24606;51.992;4.198;2023-12-20T19:55:38;21.15;;;5.03;;
38853;SDS011;24606;51.992;4.198;2023-12-20T20:00:41;17.63;;;4.95;;
38853;SDS011;24606;51.992;4.198;2023-12-20T20:05:43;19.77;;;3.83;;
38853;SDS011;24606;51.992;4.198;2023-12-20T20:10:47;19.23;;;3.97;;
38853;SDS011;24606;51.992;4.198;2023-12-20T20:15:49;18.15;;;4.53;;
38853;SDS011;24606;51.992;4.198;2023-12-20T20:20:51;26.70;;;5.38;;
38853;SDS011;24606;51.992;4.198;2023-12-20T20:25:54;17.88;;;4.35;;
38853;SDS011;24606;51.992;4.198;2023-12-20T20:30:57;30.35;;;6.22;;
38853;SDS011;24606;51.992;4.198;2023-12-20T20:35:59;34.78;;;5.43;;
38853;SDS011;24606;51.992;4.198;2023-12-20T20:41:05;17.77;;;4.47;;
38853;SDS011;24606;51.992;4.198;2023-12-20T20:46:07;22.70;;;4.78;;
38853;SDS011;24606;51.992;4.198;2023-12-20T20:51:11;25.15;;;5.32;;
38853;SDS011;24606;51.992;4.198;2023-12-20T20:56:15;24.37;;;5.73;;
38853;SDS011;24606;51.992;4.198;2023-12-20T21:01:20;16.60;;;3.67;;
38853;SDS011;24606;51.992;4.198;2023-12-20T21:06:27;26.77;;;4.45;;
38853;SDS011;24606;51.992;4.198;2023-12-20T21:11:31;19.92;;;3.67;;
38853;SDS011;24606;51.992;4.198;2023-12-20T21:16:33;21.25;;;4.72;;
38853;SDS011;24606;51.992;4.198;2023-12-20T21:21:36;26.95;;;4.68;;
38853;SDS011;24606;51.992;4.198;2023-12-20T21:26:41;20.08;;;3.55;;
38853;SDS011;24606;51.992;4.198;2023-12-20T21:31:44;18.98;;;4.43;;
38853;SDS011;24606;51.992;4.198;2023-12-20T21:36:46;23.23;;;5.03;;
38853;SDS011;24606;51.992;4.198;2023-12-20T21:41:50;27.25;;;4.63;;
38853;SDS011;24606;51.992;4.198;2023-12-20T21:46:52;18.85;;;3.67;;
38853;SDS011;24606;51.992;4.198;2023-12-20T21:51:54;20.48;;;3.38;;
38853;SDS011;24606;51.992;4.198;2023-12-20T21:56:59;23.92;;;5.72;;
38853;SDS011;24606;51.992;4.198;2023-12-20T22:02:01;20.00;;;4.50;;
38853;SDS011;24606;51.992;4.198;2023-12-20T22:07:03;12.65;;;2.35;;
38853;SDS011;24606;51.992;4.198;2023-12-20T22:12:07;18.73;;;4.13;;
38853;SDS011;24606;51.992;4.198;2023-12-20T22:17:09;21.73;;;4.45;;
38853;SDS011;24606;51.992;4.198;2023-12-20T22:22:12;26.63;;;4.33;;
38853;SDS011;24606;51.992;4.198;2023-12-20T22:27:15;23.30;;;4.50;;
38853;SDS011;24606;51.992;4.198;2023-12-20T22:32:18;18.00;;;4.05;;
38853;SDS011;24606;51.992;4.198;2023-12-20T22:37:21;16.88;;;3.53;;
38853;SDS011;24606;51.992;4.198;2023-12-20T22:42:24;25.10;;;4.10;;
38853;SDS011;24606;51.992;4.198;2023-12-20T22:47:26;18.55;;;4.45;;
38853;SDS011;24606;51.992;4.198;2023-12-20T22:52:29;26.60;;;5.23;;
38853;SDS011;24606;51.992;4.198;2023-12-20T22:57:33;16.30;;;2.95;;
38853;SDS011;24606;51.992;4.198;2023-12-20T23:02:36;19.90;;;2.92;;
38853;SDS011;24606;51.992;4.198;2023-12-20T23:07:40;21.13;;;3.33;;
38853;SDS011;24606;51.992;4.198;2023-12-20T23:12:43;26.25;;;4.85;;
38853;SDS011;24606;51.992;4.198;2023-12-20T23:17:47;18.45;;;3.33;;
38853;SDS011;24606;51.992;4.198;2023-12-20T23:22:49;24.20;;;4.72;;
38853;SDS011;24606;51.992;4.198;2023-12-20T23:27:53;22.40;;;3.97;;
38853;SDS011;24606;51.992;4.198;2023-12-20T23:32:55;19.80;;;4.43;;
38853;SDS011;24606;51.992;4.198;2023-12-20T23:37:57;19.13;;;3.43;;
38853;SDS011;24606;51.992;4.198;2023-12-20T23:43:01;23.35;;;4.60;;
38853;SDS011;24606;51.992;4.198;2023-12-20T23:48:03;30.70;;;3.95;;
38853;SDS011;24606;51.992;4.198;2023-12-20T23:53:05;23.98;;;3.88;;
38853;SDS011;24606;51.992;4.198;2023-12-20T23:58:09;12.50;;;2.75;;
